Aviation Digital Data Service (ADDS)

Output produced by METARs form (1908 UTC 24 April 2014)
found at http://aviationweather.gov/adds/metars/
 
KBWI 241733Z 2418/2524 32014G18KT P6SM FEW250 
     FM242200 31007KT P6SM SCT250 
     FM250000 VRB03KT P6SM SCT250 
     FM250900 10004KT P6SM BKN110 
     FM251400 14009KT P6SM BKN110 
     FM251800 15013KT 6SM SHRA BKN040 
     FM252100 15013KT 6SM -SHRA BKN030 
     FM252300 15008KT 6SM -SHRA BKN030